sensor_id;sensor_type;location;lat;lon;timestamp;P1;durP1;ratioP1;P2;durP2;ratioP2
2548;SDS011;1284;53.520;10.248;2023-07-31T00:00:34;1.17;;;0.30;;
2548;SDS011;1284;53.520;10.248;2023-07-31T00:03:00;0.30;;;0.20;;
2548;SDS011;1284;53.520;10.248;2023-07-31T00:05:25;0.47;;;0.40;;
2548;SDS011;1284;53.520;10.248;2023-07-31T00:07:51;0.45;;;0.45;;
2548;SDS011;1284;53.520;10.248;2023-07-31T00:10:16;0.40;;;0.40;;
2548;SDS011;1284;53.520;10.248;2023-07-31T00:12:43;0.30;;;0.30;;
2548;SDS011;1284;53.520;10.248;2023-07-31T00:15:11;0.40;;;0.30;;
2548;SDS011;1284;53.520;10.248;2023-07-31T00:17:38;0.30;;;0.20;;
2548;SDS011;1284;53.520;10.248;2023-07-31T00:20:03;0.63;;;0.50;;
2548;SDS011;1284;53.520;10.248;2023-07-31T00:22:29;0.52;;;0.40;;
2548;SDS011;1284;53.520;10.248;2023-07-31T00:24:55;0.40;;;0.40;;
2548;SDS011;1284;53.520;10.248;2023-07-31T00:27:21;0.85;;;0.85;;
2548;SDS011;1284;53.520;10.248;2023-07-31T00:29:46;2.03;;;0.40;;
2548;SDS011;1284;53.520;10.248;2023-07-31T00:32:12;1.27;;;0.45;;
2548;SDS011;1284;53.520;10.248;2023-07-31T00:34:37;0.88;;;0.65;;
2548;SDS011;1284;53.520;10.248;2023-07-31T00:37:03;2.45;;;1.10;;
2548;SDS011;1284;53.520;10.248;2023-07-31T00:39:33;0.70;;;0.50;;
2548;SDS011;1284;53.520;10.248;2023-07-31T00:41:59;1.63;;;0.68;;
2548;SDS011;1284;53.520;10.248;2023-07-31T00:44:24;0.90;;;0.38;;
2548;SDS011;1284;53.520;10.248;2023-07-31T00:46:50;0.35;;;0.32;;
2548;SDS011;1284;53.520;10.248;2023-07-31T00:49:16;0.60;;;0.35;;
2548;SDS011;1284;53.520;10.248;2023-07-31T00:51:41;0.60;;;0.50;;
2548;SDS011;1284;53.520;10.248;2023-07-31T00:54:07;1.27;;;0.77;;
2548;SDS011;1284;53.520;10.248;2023-07-31T00:56:32;0.40;;;0.40;;
2548;SDS011;1284;53.520;10.248;2023-07-31T00:59:00;0.50;;;0.50;;
2548;SDS011;1284;53.520;10.248;2023-07-31T01:01:25;2.72;;;0.40;;
2548;SDS011;1284;53.520;10.248;2023-07-31T01:03:50;0.43;;;0.30;;
2548;SDS011;1284;53.520;10.248;2023-07-31T01:06:29;0.30;;;0.30;;
2548;SDS011;1284;53.520;10.248;2023-07-31T01:09:03;0.30;;;0.30;;
2548;SDS011;1284;53.520;10.248;2023-07-31T01:11:33;0.32;;;0.30;;
2548;SDS011;1284;53.520;10.248;2023-07-31T01:14:04;1.13;;;0.50;;
2548;SDS011;1284;53.520;10.248;2023-07-31T01:16:29;0.55;;;0.40;;
2548;SDS011;1284;53.520;10.248;2023-07-31T01:18:55;1.42;;;0.50;;
2548;SDS011;1284;53.520;10.248;2023-07-31T01:24:20;0.70;;;0.50;;
2548;SDS011;1284;53.520;10.248;2023-07-31T01:27:10;0.95;;;0.57;;
2548;SDS011;1284;53.520;10.248;2023-07-31T01:29:47;0.82;;;0.55;;
2548;SDS011;1284;53.520;10.248;2023-07-31T01:32:20;0.80;;;0.68;;
2548;SDS011;1284;53.520;10.248;2023-07-31T01:34:48;0.57;;;0.40;;
2548;SDS011;1284;53.520;10.248;2023-07-31T01:37:17;0.63;;;0.50;;
2548;SDS011;1284;53.520;10.248;2023-07-31T01:39:43;0.50;;;0.50;;
2548;SDS011;1284;53.520;10.248;2023-07-31T01:42:08;4.05;;;0.60;;
2548;SDS011;1284;53.520;10.248;2023-07-31T01:44:34;1.20;;;0.47;;
2548;SDS011;1284;53.520;10.248;2023-07-31T01:47:00;0.98;;;0.40;;
2548;SDS011;1284;53.520;10.248;2023-07-31T01:49:25;0.47;;;0.40;;
2548;SDS011;1284;53.520;10.248;2023-07-31T01:51:51;1.05;;;0.30;;
2548;SDS011;1284;53.520;10.248;2023-07-31T01:54:16;0.68;;;0.45;;
2548;SDS011;1284;53.520;10.248;2023-07-31T01:56:42;0.40;;;0.40;;
2548;SDS011;1284;53.520;10.248;2023-07-31T01:59:07;3.85;;;0.40;;
2548;SDS011;1284;53.520;10.248;2023-07-31T02:01:33;8.05;;;0.60;;
2548;SDS011;1284;53.520;10.248;2023-07-31T02:03:58;0.60;;;0.40;;
2548;SDS011;1284;53.520;10.248;2023-07-31T02:06:24;1.27;;;0.63;;
2548;SDS011;1284;53.520;10.248;2023-07-31T02:08:49;0.52;;;0.50;;
2548;SDS011;1284;53.520;10.248;2023-07-31T02:11:15;0.60;;;0.50;;
2548;SDS011;1284;53.520;10.248;2023-07-31T02:13:40;0.85;;;0.65;;
2548;SDS011;1284;53.520;10.248;2023-07-31T02:16:06;0.70;;;0.50;;
2548;SDS011;1284;53.520;10.248;2023-07-31T02:18:32;0.50;;;0.43;;
2548;SDS011;1284;53.520;10.248;2023-07-31T02:20:57;1.98;;;0.80;;
2548;SDS011;1284;53.520;10.248;2023-07-31T02:23:22;1.65;;;0.45;;
2548;SDS011;1284;53.520;10.248;2023-07-31T02:25:49;0.60;;;0.50;;
2548;SDS011;1284;53.520;10.248;2023-07-31T02:28:14;1.10;;;0.52;;
2548;SDS011;1284;53.520;10.248;2023-07-31T02:30:39;0.60;;;0.40;;
2548;SDS011;1284;53.520;10.248;2023-07-31T02:33:08;0.73;;;0.63;;
2548;SDS011;1284;53.520;10.248;2023-07-31T02:35:34;2.47;;;0.60;;
2548;SDS011;1284;53.520;10.248;2023-07-31T02:37:59;0.55;;;0.55;;
2548;SDS011;1284;53.520;10.248;2023-07-31T02:40:25;1.45;;;0.50;;
2548;SDS011;1284;53.520;10.248;2023-07-31T02:42:50;0.80;;;0.45;;
2548;SDS011;1284;53.520;10.248;2023-07-31T02:45:15;1.45;;;0.60;;
2548;SDS011;1284;53.520;10.248;2023-07-31T02:47:41;0.80;;;0.40;;
2548;SDS011;1284;53.520;10.248;2023-07-31T02:50:06;0.38;;;0.38;;
2548;SDS011;1284;53.520;10.248;2023-07-31T02:52:32;0.70;;;0.60;;
2548;SDS011;1284;53.520;10.248;2023-07-31T02:54:58;0.43;;;0.40;;
2548;SDS011;1284;53.520;10.248;2023-07-31T02:57:23;0.40;;;0.38;;
2548;SDS011;1284;53.520;10.248;2023-07-31T02:59:49;0.63;;;0.43;;
2548;SDS011;1284;53.520;10.248;2023-07-31T03:02:14;0.32;;;0.30;;
2548;SDS011;1284;53.520;10.248;2023-07-31T03:04:40;0.65;;;0.50;;
2548;SDS011;1284;53.520;10.248;2023-07-31T03:07:05;0.75;;;0.57;;
2548;SDS011;1284;53.520;10.248;2023-07-31T03:09:31;1.00;;;0.57;;
2548;SDS011;1284;53.520;10.248;2023-07-31T03:11:56;2.95;;;0.68;;
2548;SDS011;1284;53.520;10.248;2023-07-31T03:14:22;0.60;;;0.60;;
2548;SDS011;1284;53.520;10.248;2023-07-31T03:16:48;2.88;;;0.45;;
2548;SDS011;1284;53.520;10.248;2023-07-31T03:19:13;1.50;;;0.50;;
2548;SDS011;1284;53.520;10.248;2023-07-31T03:21:39;0.95;;;0.70;;
2548;SDS011;1284;53.520;10.248;2023-07-31T03:24:04;1.88;;;0.50;;
2548;SDS011;1284;53.520;10.248;2023-07-31T03:26:31;0.70;;;0.57;;
2548;SDS011;1284;53.520;10.248;2023-07-31T03:28:57;1.23;;;0.55;;
2548;SDS011;1284;53.520;10.248;2023-07-31T03:31:23;0.80;;;0.60;;
2548;SDS011;1284;53.520;10.248;2023-07-31T03:33:48;2.67;;;0.60;;
2548;SDS011;1284;53.520;10.248;2023-07-31T03:36:13;1.33;;;0.85;;
2548;SDS011;1284;53.520;10.248;2023-07-31T03:38:39;1.23;;;0.50;;
2548;SDS011;1284;53.520;10.248;2023-07-31T03:41:06;2.38;;;0.82;;
2548;SDS011;1284;53.520;10.248;2023-07-31T03:43:32;3.88;;;0.85;;
2548;SDS011;1284;53.520;10.248;2023-07-31T03:46:00;4.60;;;0.95;;
2548;SDS011;1284;53.520;10.248;2023-07-31T03:48:26;0.80;;;0.68;;
2548;SDS011;1284;53.520;10.248;2023-07-31T03:50:51;7.32;;;0.80;;
2548;SDS011;1284;53.520;10.248;2023-07-31T03:53:17;0.55;;;0.55;;
2548;SDS011;1284;53.520;10.248;2023-07-31T03:55:42;1.00;;;0.65;;
2548;SDS011;1284;53.520;10.248;2023-07-31T03:58:08;1.00;;;0.65;;
2548;SDS011;1284;53.520;10.248;2023-07-31T04:00:33;0.98;;;0.70;;
2548;SDS011;1284;53.520;10.248;2023-07-31T04:02:59;1.35;;;0.65;;
2548;SDS011;1284;53.520;10.248;2023-07-31T04:05:24;0.93;;;0.80;;
2548;SDS011;1284;53.520;10.248;2023-07-31T04:07:50;1.40;;;1.10;;
2548;SDS011;1284;53.520;10.248;2023-07-31T04:10:15;1.10;;;0.85;;
2548;SDS011;1284;53.520;10.248;2023-07-31T04:12:41;0.70;;;0.57;;
2548;SDS011;1284;53.520;10.248;2023-07-31T04:15:06;1.48;;;0.75;;
2548;SDS011;1284;53.520;10.248;2023-07-31T04:17:32;1.30;;;0.90;;
2548;SDS011;1284;53.520;10.248;2023-07-31T04:19:57;1.17;;;0.80;;
2548;SDS011;1284;53.520;10.248;2023-07-31T04:22:23;1.38;;;0.90;;
2548;SDS011;1284;53.520;10.248;2023-07-31T04:24:48;1.38;;;0.90;;
2548;SDS011;1284;53.520;10.248;2023-07-31T04:27:14;1.45;;;1.00;;
2548;SDS011;1284;53.520;10.248;2023-07-31T04:29:39;1.45;;;1.00;;
2548;SDS011;1284;53.520;10.248;2023-07-31T04:32:07;1.38;;;1.05;;
2548;SDS011;1284;53.520;10.248;2023-07-31T04:34:33;1.70;;;0.95;;
2548;SDS011;1284;53.520;10.248;2023-07-31T04:36:58;4.78;;;1.10;;
2548;SDS011;1284;53.520;10.248;2023-07-31T04:39:27;2.95;;;0.93;;
2548;SDS011;1284;53.520;10.248;2023-07-31T04:41:52;1.55;;;0.95;;
2548;SDS011;1284;53.520;10.248;2023-07-31T04:44:18;2.58;;;1.17;;
2548;SDS011;1284;53.520;10.248;2023-07-31T04:46:43;2.15;;;0.95;;
2548;SDS011;1284;53.520;10.248;2023-07-31T04:49:09;0.93;;;0.77;;
2548;SDS011;1284;53.520;10.248;2023-07-31T04:51:34;1.40;;;0.73;;
2548;SDS011;1284;53.520;10.248;2023-07-31T04:54:00;2.42;;;1.10;;
2548;SDS011;1284;53.520;10.248;2023-07-31T04:56:25;1.15;;;1.05;;
2548;SDS011;1284;53.520;10.248;2023-07-31T04:58:50;2.25;;;1.00;;
2548;SDS011;1284;53.520;10.248;2023-07-31T05:01:16;1.92;;;1.10;;
2548;SDS011;1284;53.520;10.248;2023-07-31T05:03:41;1.13;;;0.90;;
2548;SDS011;1284;53.520;10.248;2023-07-31T05:06:07;1.88;;;1.08;;
2548;SDS011;1284;53.520;10.248;2023-07-31T05:08:32;2.75;;;1.13;;
2548;SDS011;1284;53.520;10.248;2023-07-31T05:10:58;1.50;;;0.98;;
2548;SDS011;1284;53.520;10.248;2023-07-31T05:13:24;2.80;;;1.30;;
2548;SDS011;1284;53.520;10.248;2023-07-31T05:15:49;1.80;;;0.90;;
2548;SDS011;1284;53.520;10.248;2023-07-31T05:18:15;2.42;;;1.40;;
2548;SDS011;1284;53.520;10.248;2023-07-31T05:20:40;1.30;;;0.85;;
2548;SDS011;1284;53.520;10.248;2023-07-31T05:23:06;1.63;;;1.10;;
2548;SDS011;1284;53.520;10.248;2023-07-31T05:25:31;2.67;;;1.02;;
2548;SDS011;1284;53.520;10.248;2023-07-31T05:27:57;1.50;;;1.08;;
2548;SDS011;1284;53.520;10.248;2023-07-31T05:30:22;0.77;;;0.77;;
2548;SDS011;1284;53.520;10.248;2023-07-31T05:32:48;1.35;;;0.93;;
2548;SDS011;1284;53.520;10.248;2023-07-31T05:35:13;1.95;;;1.02;;
2548;SDS011;1284;53.520;10.248;2023-07-31T05:37:39;1.33;;;0.90;;
2548;SDS011;1284;53.520;10.248;2023-07-31T05:40:04;1.55;;;0.82;;
2548;SDS011;1284;53.520;10.248;2023-07-31T05:42:30;1.08;;;0.88;;
2548;SDS011;1284;53.520;10.248;2023-07-31T05:44:55;0.80;;;0.68;;
2548;SDS011;1284;53.520;10.248;2023-07-31T05:47:21;1.48;;;1.08;;
2548;SDS011;1284;53.520;10.248;2023-07-31T05:49:46;1.83;;;0.95;;
2548;SDS011;1284;53.520;10.248;2023-07-31T05:52:12;2.50;;;0.90;;
2548;SDS011;1284;53.520;10.248;2023-07-31T05:54:37;1.50;;;1.05;;
2548;SDS011;1284;53.520;10.248;2023-07-31T05:57:03;2.75;;;1.38;;
2548;SDS011;1284;53.520;10.248;2023-07-31T05:59:28;1.98;;;1.02;;
2548;SDS011;1284;53.520;10.248;2023-07-31T06:01:56;1.00;;;0.90;;
2548;SDS011;1284;53.520;10.248;2023-07-31T06:04:21;1.15;;;1.05;;
2548;SDS011;1284;53.520;10.248;2023-07-31T06:06:47;1.88;;;1.08;;
2548;SDS011;1284;53.520;10.248;2023-07-31T06:09:12;2.05;;;1.00;;
2548;SDS011;1284;53.520;10.248;2023-07-31T06:11:37;1.23;;;0.98;;
2548;SDS011;1284;53.520;10.248;2023-07-31T06:14:03;1.13;;;0.80;;
2548;SDS011;1284;53.520;10.248;2023-07-31T06:16:28;1.77;;;0.82;;
2548;SDS011;1284;53.520;10.248;2023-07-31T06:18:54;1.40;;;0.90;;
2548;SDS011;1284;53.520;10.248;2023-07-31T06:21:19;1.67;;;1.10;;
2548;SDS011;1284;53.520;10.248;2023-07-31T06:23:44;1.23;;;0.77;;
2548;SDS011;1284;53.520;10.248;2023-07-31T06:26:10;0.80;;;0.80;;
2548;SDS011;1284;53.520;10.248;2023-07-31T06:28:35;1.25;;;0.90;;
2548;SDS011;1284;53.520;10.248;2023-07-31T06:31:01;1.92;;;1.05;;
2548;SDS011;1284;53.520;10.248;2023-07-31T06:33:27;1.05;;;0.73;;
2548;SDS011;1284;53.520;10.248;2023-07-31T06:35:53;2.00;;;1.00;;
2548;SDS011;1284;53.520;10.248;2023-07-31T06:38:22;1.65;;;0.85;;
2548;SDS011;1284;53.520;10.248;2023-07-31T06:40:49;1.55;;;0.95;;
2548;SDS011;1284;53.520;10.248;2023-07-31T06:43:15;1.27;;;0.65;;
2548;SDS011;1284;53.520;10.248;2023-07-31T06:45:40;1.02;;;0.82;;
2548;SDS011;1284;53.520;10.248;2023-07-31T06:48:06;1.27;;;1.00;;
2548;SDS011;1284;53.520;10.248;2023-07-31T06:50:31;0.88;;;0.65;;
2548;SDS011;1284;53.520;10.248;2023-07-31T06:52:57;0.98;;;0.73;;
2548;SDS011;1284;53.520;10.248;2023-07-31T06:55:23;2.90;;;0.73;;
2548;SDS011;1284;53.520;10.248;2023-07-31T06:57:50;0.65;;;0.63;;
2548;SDS011;1284;53.520;10.248;2023-07-31T07:00:17;1.13;;;0.70;;
2548;SDS011;1284;53.520;10.248;2023-07-31T07:02:43;4.25;;;0.77;;
2548;SDS011;1284;53.520;10.248;2023-07-31T07:05:09;3.50;;;0.68;;
2548;SDS011;1284;53.520;10.248;2023-07-31T07:07:35;1.13;;;0.70;;
2548;SDS011;1284;53.520;10.248;2023-07-31T07:10:01;1.45;;;0.70;;
2548;SDS011;1284;53.520;10.248;2023-07-31T07:12:28;1.02;;;0.70;;
2548;SDS011;1284;53.520;10.248;2023-07-31T07:14:55;1.95;;;0.88;;
2548;SDS011;1284;53.520;10.248;2023-07-31T07:17:20;1.13;;;0.70;;
2548;SDS011;1284;53.520;10.248;2023-07-31T07:19:47;0.80;;;0.70;;
2548;SDS011;1284;53.520;10.248;2023-07-31T07:22:15;0.73;;;0.50;;
2548;SDS011;1284;53.520;10.248;2023-07-31T07:24:42;0.73;;;0.52;;
2548;SDS011;1284;53.520;10.248;2023-07-31T07:27:08;1.00;;;0.90;;
2548;SDS011;1284;53.520;10.248;2023-07-31T07:29:33;0.40;;;0.32;;
2548;SDS011;1284;53.520;10.248;2023-07-31T07:31:59;0.90;;;0.57;;
2548;SDS011;1284;53.520;10.248;2023-07-31T07:34:25;0.68;;;0.60;;
2548;SDS011;1284;53.520;10.248;2023-07-31T07:36:52;0.70;;;0.52;;
2548;SDS011;1284;53.520;10.248;2023-07-31T07:39:17;0.57;;;0.47;;
2548;SDS011;1284;53.520;10.248;2023-07-31T07:41:43;1.15;;;0.82;;
2548;SDS011;1284;53.520;10.248;2023-07-31T07:44:08;0.80;;;0.47;;
2548;SDS011;1284;53.520;10.248;2023-07-31T07:46:34;1.17;;;0.75;;
2548;SDS011;1284;53.520;10.248;2023-07-31T07:48:59;1.02;;;0.57;;
2548;SDS011;1284;53.520;10.248;2023-07-31T07:51:25;3.58;;;1.45;;
2548;SDS011;1284;53.520;10.248;2023-07-31T07:53:50;0.95;;;0.40;;
2548;SDS011;1284;53.520;10.248;2023-07-31T07:56:16;0.80;;;0.60;;
2548;SDS011;1284;53.520;10.248;2023-07-31T07:58:41;0.40;;;0.35;;
2548;SDS011;1284;53.520;10.248;2023-07-31T08:01:06;0.22;;;0.22;;
2548;SDS011;1284;53.520;10.248;2023-07-31T08:03:32;0.82;;;0.50;;
2548;SDS011;1284;53.520;10.248;2023-07-31T08:06:01;0.20;;;0.20;;
2548;SDS011;1284;53.520;10.248;2023-07-31T08:08:27;0.45;;;0.35;;
2548;SDS011;1284;53.520;10.248;2023-07-31T08:10:53;1.38;;;0.45;;
2548;SDS011;1284;53.520;10.248;2023-07-31T08:13:18;0.40;;;0.40;;
2548;SDS011;1284;53.520;10.248;2023-07-31T08:15:44;0.25;;;0.20;;
2548;SDS011;1284;53.520;10.248;2023-07-31T08:18:09;0.60;;;0.40;;
2548;SDS011;1284;53.520;10.248;2023-07-31T08:20:36;0.63;;;0.30;;
2548;SDS011;1284;53.520;10.248;2023-07-31T08:23:02;0.70;;;0.55;;
2548;SDS011;1284;53.520;10.248;2023-07-31T08:25:28;3.65;;;0.30;;
2548;SDS011;1284;53.520;10.248;2023-07-31T08:27:54;0.08;;;0.08;;
2548;SDS011;1284;53.520;10.248;2023-07-31T08:30:20;0.17;;;0.17;;
2548;SDS011;1284;53.520;10.248;2023-07-31T08:32:47;0.57;;;0.28;;
2548;SDS011;1284;53.520;10.248;2023-07-31T08:35:12;0.30;;;0.20;;
2548;SDS011;1284;53.520;10.248;2023-07-31T08:37:38;0.32;;;0.30;;
2548;SDS011;1284;53.520;10.248;2023-07-31T08:40:04;0.10;;;0.10;;
2548;SDS011;1284;53.520;10.248;2023-07-31T08:42:30;0.30;;;0.30;;
2548;SDS011;1284;53.520;10.248;2023-07-31T08:44:56;0.15;;;0.15;;
2548;SDS011;1284;53.520;10.248;2023-07-31T08:47:25;0.40;;;0.40;;
2548;SDS011;1284;53.520;10.248;2023-07-31T08:49:52;0.10;;;0.10;;
2548;SDS011;1284;53.520;10.248;2023-07-31T08:52:18;0.30;;;0.20;;
2548;SDS011;1284;53.520;10.248;2023-07-31T08:54:44;0.20;;;0.20;;
2548;SDS011;1284;53.520;10.248;2023-07-31T08:57:09;0.20;;;0.17;;
2548;SDS011;1284;53.520;10.248;2023-07-31T08:59:36;0.57;;;0.30;;
2548;SDS011;1284;53.520;10.248;2023-07-31T09:02:22;0.20;;;0.20;;
2548;SDS011;1284;53.520;10.248;2023-07-31T09:04:54;0.10;;;0.10;;
2548;SDS011;1284;53.520;10.248;2023-07-31T09:07:20;0.15;;;0.05;;
2548;SDS011;1284;53.520;10.248;2023-07-31T09:09:46;0.25;;;0.15;;
2548;SDS011;1284;53.520;10.248;2023-07-31T09:12:12;0.32;;;0.30;;
2548;SDS011;1284;53.520;10.248;2023-07-31T09:14:37;0.63;;;0.30;;
2548;SDS011;1284;53.520;10.248;2023-07-31T09:17:03;0.15;;;0.15;;
2548;SDS011;1284;53.520;10.248;2023-07-31T09:19:31;0.20;;;0.20;;
2548;SDS011;1284;53.520;10.248;2023-07-31T09:21:58;0.13;;;0.10;;
2548;SDS011;1284;53.520;10.248;2023-07-31T09:24:24;0.25;;;0.15;;
2548;SDS011;1284;53.520;10.248;2023-07-31T09:26:53;0.20;;;0.00;;
2548;SDS011;1284;53.520;10.248;2023-07-31T09:29:20;0.03;;;0.00;;
2548;SDS011;1284;53.520;10.248;2023-07-31T09:31:45;0.30;;;0.20;;
2548;SDS011;1284;53.520;10.248;2023-07-31T09:34:11;0.20;;;0.20;;
2548;SDS011;1284;53.520;10.248;2023-07-31T09:36:41;0.10;;;0.10;;
2548;SDS011;1284;53.520;10.248;2023-07-31T09:39:15;0.00;;;0.00;;
2548;SDS011;1284;53.520;10.248;2023-07-31T09:41:42;0.00;;;0.00;;
2548;SDS011;1284;53.520;10.248;2023-07-31T09:44:10;0.10;;;0.10;;
2548;SDS011;1284;53.520;10.248;2023-07-31T09:46:36;0.10;;;0.10;;
2548;SDS011;1284;53.520;10.248;2023-07-31T09:49:04;0.00;;;0.00;;
2548;SDS011;1284;53.520;10.248;2023-07-31T09:51:31;0.35;;;0.20;;
2548;SDS011;1284;53.520;10.248;2023-07-31T09:53:56;0.00;;;0.00;;
2548;SDS011;1284;53.520;10.248;2023-07-31T09:56:22;0.00;;;0.00;;
2548;SDS011;1284;53.520;10.248;2023-07-31T09:58:48;0.00;;;0.00;;
2548;SDS011;1284;53.520;10.248;2023-07-31T10:01:14;0.00;;;0.00;;
2548;SDS011;1284;53.520;10.248;2023-07-31T10:03:40;0.00;;;0.00;;
2548;SDS011;1284;53.520;10.248;2023-07-31T10:06:10;0.25;;;0.00;;
2548;SDS011;1284;53.520;10.248;2023-07-31T10:08:36;0.00;;;0.00;;
2548;SDS011;1284;53.520;10.248;2023-07-31T10:11:02;0.00;;;0.00;;
2548;SDS011;1284;53.520;10.248;2023-07-31T10:13:31;0.10;;;0.00;;
2548;SDS011;1284;53.520;10.248;2023-07-31T10:15:58;0.30;;;0.10;;
2548;SDS011;1284;53.520;10.248;2023-07-31T10:18:26;0.05;;;0.00;;
2548;SDS011;1284;53.520;10.248;2023-07-31T10:21:12;0.00;;;0.00;;
2548;SDS011;1284;53.520;10.248;2023-07-31T10:23:39;0.00;;;0.00;;
2548;SDS011;1284;53.520;10.248;2023-07-31T10:26:05;0.10;;;0.00;;
2548;SDS011;1284;53.520;10.248;2023-07-31T10:28:32;0.20;;;0.10;;
2548;SDS011;1284;53.520;10.248;2023-07-31T10:31:00;0.00;;;0.00;;
2548;SDS011;1284;53.520;10.248;2023-07-31T10:33:26;0.05;;;0.03;;
2548;SDS011;1284;53.520;10.248;2023-07-31T10:36:11;0.00;;;0.00;;
2548;SDS011;1284;53.520;10.248;2023-07-31T10:38:38;0.47;;;0.30;;
2548;SDS011;1284;53.520;10.248;2023-07-31T10:41:10;1.58;;;0.30;;
2548;SDS011;1284;53.520;10.248;2023-07-31T10:43:36;1.23;;;0.52;;
2548;SDS011;1284;53.520;10.248;2023-07-31T10:46:08;1.63;;;0.90;;
2548;SDS011;1284;53.520;10.248;2023-07-31T10:48:36;1.63;;;0.93;;
2548;SDS011;1284;53.520;10.248;2023-07-31T10:51:12;2.22;;;1.10;;
2548;SDS011;1284;53.520;10.248;2023-07-31T10:53:42;3.67;;;1.48;;
2548;SDS011;1284;53.520;10.248;2023-07-31T10:56:08;2.20;;;1.20;;
2548;SDS011;1284;53.520;10.248;2023-07-31T10:58:37;2.08;;;1.33;;
2548;SDS011;1284;53.520;10.248;2023-07-31T11:01:23;3.05;;;1.42;;
2548;SDS011;1284;53.520;10.248;2023-07-31T11:04:11;4.35;;;1.80;;
2548;SDS011;1284;53.520;10.248;2023-07-31T11:06:38;4.28;;;1.23;;
2548;SDS011;1284;53.520;10.248;2023-07-31T11:09:03;8.35;;;1.77;;
2548;SDS011;1284;53.520;10.248;2023-07-31T11:11:30;5.32;;;2.55;;
2548;SDS011;1284;53.520;10.248;2023-07-31T11:13:58;4.50;;;1.63;;
2548;SDS011;1284;53.520;10.248;2023-07-31T11:16:24;3.47;;;1.60;;
2548;SDS011;1284;53.520;10.248;2023-07-31T11:18:50;2.35;;;1.35;;
2548;SDS011;1284;53.520;10.248;2023-07-31T11:21:21;2.28;;;1.45;;
2548;SDS011;1284;53.520;10.248;2023-07-31T11:23:48;3.72;;;1.33;;
2548;SDS011;1284;53.520;10.248;2023-07-31T11:26:15;2.20;;;1.25;;
2548;SDS011;1284;53.520;10.248;2023-07-31T11:28:41;1.85;;;1.45;;
2548;SDS011;1284;53.520;10.248;2023-07-31T11:31:10;2.85;;;1.50;;
2548;SDS011;1284;53.520;10.248;2023-07-31T11:33:36;1.80;;;1.10;;
2548;SDS011;1284;53.520;10.248;2023-07-31T11:36:01;2.53;;;1.17;;
2548;SDS011;1284;53.520;10.248;2023-07-31T11:38:28;1.70;;;1.08;;
2548;SDS011;1284;53.520;10.248;2023-07-31T11:40:56;0.98;;;0.60;;
2548;SDS011;1284;53.520;10.248;2023-07-31T11:43:24;3.33;;;1.27;;
2548;SDS011;1284;53.520;10.248;2023-07-31T11:45:53;1.98;;;0.80;;
2548;SDS011;1284;53.520;10.248;2023-07-31T11:50:46;0.73;;;0.52;;
2548;SDS011;1284;53.520;10.248;2023-07-31T11:53:14;1.45;;;0.80;;
2548;SDS011;1284;53.520;10.248;2023-07-31T11:55:42;1.70;;;0.63;;
2548;SDS011;1284;53.520;10.248;2023-07-31T11:58:08;1.92;;;0.82;;
2548;SDS011;1284;53.520;10.248;2023-07-31T12:00:34;1.10;;;0.73;;
2548;SDS011;1284;53.520;10.248;2023-07-31T12:03:00;0.95;;;0.60;;
2548;SDS011;1284;53.520;10.248;2023-07-31T12:05:25;1.60;;;0.68;;
2548;SDS011;1284;53.520;10.248;2023-07-31T12:07:53;2.17;;;0.77;;
2548;SDS011;1284;53.520;10.248;2023-07-31T12:12:55;0.40;;;0.30;;
2548;SDS011;1284;53.520;10.248;2023-07-31T12:18:08;1.02;;;0.60;;
2548;SDS011;1284;53.520;10.248;2023-07-31T12:20:45;0.90;;;0.40;;
2548;SDS011;1284;53.520;10.248;2023-07-31T12:25:40;0.52;;;0.40;;
2548;SDS011;1284;53.520;10.248;2023-07-31T12:28:06;0.20;;;0.20;;
2548;SDS011;1284;53.520;10.248;2023-07-31T12:30:39;0.85;;;0.45;;
2548;SDS011;1284;53.520;10.248;2023-07-31T12:33:15;0.45;;;0.32;;
2548;SDS011;1284;53.520;10.248;2023-07-31T12:35:45;0.32;;;0.32;;
2548;SDS011;1284;53.520;10.248;2023-07-31T12:38:12;0.82;;;0.38;;
2548;SDS011;1284;53.520;10.248;2023-07-31T12:40:38;0.22;;;0.22;;
2548;SDS011;1284;53.520;10.248;2023-07-31T12:43:05;1.40;;;0.55;;
2548;SDS011;1284;53.520;10.248;2023-07-31T12:45:31;0.30;;;0.20;;
2548;SDS011;1284;53.520;10.248;2023-07-31T12:47:57;1.85;;;0.35;;
2548;SDS011;1284;53.520;10.248;2023-07-31T12:50:26;0.55;;;0.45;;
2548;SDS011;1284;53.520;10.248;2023-07-31T12:52:53;0.38;;;0.28;;
2548;SDS011;1284;53.520;10.248;2023-07-31T12:55:19;0.63;;;0.40;;
2548;SDS011;1284;53.520;10.248;2023-07-31T12:57:44;0.38;;;0.30;;
2548;SDS011;1284;53.520;10.248;2023-07-31T13:00:10;0.50;;;0.47;;
2548;SDS011;1284;53.520;10.248;2023-07-31T13:02:36;2.47;;;0.38;;
2548;SDS011;1284;53.520;10.248;2023-07-31T13:05:01;0.28;;;0.20;;
2548;SDS011;1284;53.520;10.248;2023-07-31T13:07:27;0.75;;;0.43;;
2548;SDS011;1284;53.520;10.248;2023-07-31T13:09:53;0.40;;;0.30;;
2548;SDS011;1284;53.520;10.248;2023-07-31T13:12:18;0.50;;;0.50;;
2548;SDS011;1284;53.520;10.248;2023-07-31T13:14:44;0.28;;;0.28;;
2548;SDS011;1284;53.520;10.248;2023-07-31T13:17:09;0.45;;;0.40;;
2548;SDS011;1284;53.520;10.248;2023-07-31T13:19:35;0.52;;;0.10;;
2548;SDS011;1284;53.520;10.248;2023-07-31T13:22:00;0.77;;;0.30;;
2548;SDS011;1284;53.520;10.248;2023-07-31T13:24:25;1.55;;;0.55;;
2548;SDS011;1284;53.520;10.248;2023-07-31T13:26:51;0.65;;;0.47;;
2548;SDS011;1284;53.520;10.248;2023-07-31T13:29:16;0.32;;;0.30;;
2548;SDS011;1284;53.520;10.248;2023-07-31T13:31:42;0.65;;;0.40;;
2548;SDS011;1284;53.520;10.248;2023-07-31T13:34:07;0.98;;;0.50;;
2548;SDS011;1284;53.520;10.248;2023-07-31T13:36:32;0.65;;;0.28;;
2548;SDS011;1284;53.520;10.248;2023-07-31T13:38:59;0.15;;;0.15;;
2548;SDS011;1284;53.520;10.248;2023-07-31T13:41:25;0.43;;;0.20;;
2548;SDS011;1284;53.520;10.248;2023-07-31T13:43:51;0.30;;;0.30;;
2548;SDS011;1284;53.520;10.248;2023-07-31T13:46:16;0.98;;;0.63;;
2548;SDS011;1284;53.520;10.248;2023-07-31T13:48:42;0.47;;;0.20;;
2548;SDS011;1284;53.520;10.248;2023-07-31T13:51:07;0.50;;;0.43;;
2548;SDS011;1284;53.520;10.248;2023-07-31T13:53:32;0.40;;;0.20;;
2548;SDS011;1284;53.520;10.248;2023-07-31T13:55:58;0.28;;;0.28;;
2548;SDS011;1284;53.520;10.248;2023-07-31T13:58:23;0.35;;;0.30;;
2548;SDS011;1284;53.520;10.248;2023-07-31T14:00:49;0.60;;;0.17;;
2548;SDS011;1284;53.520;10.248;2023-07-31T14:03:14;0.15;;;0.15;;
2548;SDS011;1284;53.520;10.248;2023-07-31T14:05:39;0.38;;;0.38;;
2548;SDS011;1284;53.520;10.248;2023-07-31T14:08:05;0.10;;;0.10;;
2548;SDS011;1284;53.520;10.248;2023-07-31T14:10:30;0.15;;;0.13;;
2548;SDS011;1284;53.520;10.248;2023-07-31T14:12:56;0.82;;;0.30;;
2548;SDS011;1284;53.520;10.248;2023-07-31T14:15:21;0.43;;;0.30;;
2548;SDS011;1284;53.520;10.248;2023-07-31T14:17:47;0.32;;;0.20;;
2548;SDS011;1284;53.520;10.248;2023-07-31T14:20:33;0.25;;;0.13;;
2548;SDS011;1284;53.520;10.248;2023-07-31T14:22:58;3.50;;;0.30;;
2548;SDS011;1284;53.520;10.248;2023-07-31T14:25:24;0.35;;;0.30;;
2548;SDS011;1284;53.520;10.248;2023-07-31T14:27:50;0.35;;;0.30;;
2548;SDS011;1284;53.520;10.248;2023-07-31T14:30:15;0.20;;;0.13;;
2548;SDS011;1284;53.520;10.248;2023-07-31T14:32:42;0.10;;;0.10;;
2548;SDS011;1284;53.520;10.248;2023-07-31T14:35:28;1.55;;;0.10;;
2548;SDS011;1284;53.520;10.248;2023-07-31T14:37:53;0.28;;;0.20;;
2548;SDS011;1284;53.520;10.248;2023-07-31T14:40:18;0.10;;;0.10;;
2548;SDS011;1284;53.520;10.248;2023-07-31T14:42:44;0.15;;;0.10;;
2548;SDS011;1284;53.520;10.248;2023-07-31T14:45:10;0.45;;;0.30;;
2548;SDS011;1284;53.520;10.248;2023-07-31T14:47:36;2.05;;;0.10;;
2548;SDS011;1284;53.520;10.248;2023-07-31T14:50:01;0.20;;;0.20;;
2548;SDS011;1284;53.520;10.248;2023-07-31T14:52:28;0.40;;;0.35;;
2548;SDS011;1284;53.520;10.248;2023-07-31T14:54:53;0.40;;;0.30;;
2548;SDS011;1284;53.520;10.248;2023-07-31T14:57:19;1.50;;;0.17;;
2548;SDS011;1284;53.520;10.248;2023-07-31T14:59:45;0.32;;;0.30;;
2548;SDS011;1284;53.520;10.248;2023-07-31T15:02:35;0.77;;;0.40;;
2548;SDS011;1284;53.520;10.248;2023-07-31T15:05:01;10.75;;;0.40;;
2548;SDS011;1284;53.520;10.248;2023-07-31T15:07:27;0.38;;;0.30;;
2548;SDS011;1284;53.520;10.248;2023-07-31T15:09:52;0.95;;;0.52;;